Bald Head, North Carolina
Current Conditions -  °F | °C
As of 5:35 PM on Wednesday 22 Oct 2014 (Local Time) from KSUT Reporting Station
Clear Clear  
Wind Chill: 64°   Ceiling: Unl
Heat Index: 64°   Visibility: 10mi
Dew Point: 45°   Wind: 10mph
Humidity: 49%   Direction: 340°NNW
Pressure: 29.95"   Gusts: 17mph
Location:  34.0734°N, 78.0547°W
Report Text: KSUT 222135Z AUTO 34009G15KT 10SM CLR 18/07 A2995 RMK AO2 T01800071
Loading
Personal Weather Stations






























Interactive Weather Map
Tropical Storm Tracking
New forecast layout! Learn more

10-Day Weather Forecast

Advertisements
Track Severe Weather on mobile